Time;durP1;ratioP1;P1;durP2;ratioP2;P2;SDS_P1;SDS_P2;PMS_P1;PMS_P2;Temp;Humidity;BMP_temperature;BMP_pressure;BME280_temperature;BME280_humidity;BME280_pressure;Samples;Min_cycle;Max_cycle;Signal;HPM_P1;HPM_P2
2022/05/03 00:02:35;;;;;;;9.70;4.80;;;;;;;11.00;49.37;100255.05;1788191;80;21039;-59
2022/05/03 00:05:09;;;;;;;11.33;5.60;;;;;;;10.97;49.56;100246.38;1788074;80;21024;-59
2022/05/03 00:08:10;;;;;;;9.83;6.17;;;;;;;10.96;49.57;100251.55;1788339;80;21408;-58
2022/05/03 00:11:00;;;;;;;9.45;6.25;;;;;;;10.89;49.66;100247.92;1788348;80;21008;-59
2022/05/03 00:13:43;;;;;;;9.63;6.45;;;;;;;10.81;49.80;100250.31;1788347;80;21446;-59
2022/05/03 00:16:13;;;;;;;10.38;5.97;;;;;;;10.76;49.88;100245.97;1785767;80;21441;-58
2022/05/03 00:18:42;;;;;;;10.10;5.70;;;;;;;10.75;49.79;100253.87;1774162;81;21000;-58
2022/05/03 00:21:11;;;;;;;9.95;6.08;;;;;;;10.74;49.70;100246.17;1774645;81;21083;-57
2022/05/03 00:23:41;;;;;;;10.43;6.00;;;;;;;10.74;49.79;100243.95;1774421;81;21846;-58
2022/05/03 00:26:10;;;;;;;11.50;5.83;;;;;;;10.73;49.82;100246.38;1774390;81;20984;-58
2022/05/03 00:28:39;;;;;;;8.85;5.20;;;;;;;10.75;49.90;100244.27;1763454;81;21020;-58
2022/05/03 00:31:08;;;;;;;11.30;5.65;;;;;;;10.75;49.87;100245.64;1774560;79;21040;-58
2022/05/03 00:33:40;;;;;;;8.53;5.20;;;;;;;10.74;49.88;100240.69;1774427;81;20987;-58
2022/05/03 00:36:09;;;;;;;9.08;5.08;;;;;;;10.76;49.87;100244.59;1774511;81;21032;-57
2022/05/03 00:38:39;;;;;;;10.48;5.10;;;;;;;10.77;49.95;100244.39;1774452;81;21448;-58
2022/05/03 00:41:09;;;;;;;8.93;5.12;;;;;;;10.81;49.93;100239.35;1774373;81;21076;-57
2022/05/03 00:43:49;;;;;;;7.37;4.45;;;;;;;10.83;50.05;100237.25;1774359;81;21039;-57
2022/05/03 00:46:20;;;;;;;7.97;4.28;;;;;;;10.83;50.11;100234.52;1774407;81;21504;-61
2022/05/03 00:49:25;;;;;;;7.67;4.60;;;;;;;10.83;50.08;100240.52;1774730;81;20989;-56
2022/05/03 00:52:03;;;;;;;9.33;4.35;;;;;;;10.80;50.25;100230.81;1774480;81;21000;-57
2022/05/03 00:55:02;;;;;;;9.43;4.33;;;;;;;10.79;50.31;100230.48;1774789;79;21565;-58
2022/05/03 00:58:10;;;;;;;8.13;4.33;;;;;;;10.80;50.45;100229.44;1774544;80;21016;-58
2022/05/03 01:00:49;;;;;;;7.40;4.55;;;;;;;10.82;50.65;100224.60;1757370;80;21405;-57
2022/05/03 01:03:27;;;;;;;10.63;4.33;;;;;;;10.82;50.76;100218.27;1774531;80;20981;-56
2022/05/03 01:06:04;;;;;;;8.60;4.37;;;;;;;10.82;50.69;100223.75;1774434;81;21405;-58
2022/05/03 01:08:57;;;;;;;8.73;4.30;;;;;;;10.84;50.63;100221.66;1774470;81;21515;-57
2022/05/03 01:11:49;;;;;;;8.05;4.53;;;;;;;10.84;50.64;100216.17;1774660;81;21035;-56
2022/05/03 01:15:07;;;;;;;9.03;4.67;;;;;;;10.82;50.62;100215.01;1774499;81;21013;-58
2022/05/03 01:17:51;;;;;;;10.13;5.08;;;;;;;10.83;50.69;100218.07;1774475;80;20981;-58
2022/05/03 01:20:47;;;;;;;11.12;5.00;;;;;;;10.82;50.81;100215.53;1774500;81;20957;-58
2022/05/03 01:23:37;;;;;;;12.68;5.20;;;;;;;10.82;50.69;100218.27;1774490;80;21056;-58
2022/05/03 01:26:49;;;;;;;9.40;4.78;;;;;;;10.83;50.61;100219.44;1774243;80;20977;-58
2022/05/03 01:29:34;;;;;;;10.38;4.75;;;;;;;10.82;50.68;100213.64;1774441;81;21028;-58
2022/05/03 01:32:08;;;;;;;7.62;4.40;;;;;;;10.79;50.65;100214.05;1774384;80;21463;-57
2022/05/03 01:34:37;;;;;;;6.35;4.00;;;;;;;10.78;50.64;100216.47;1774696;81;21437;-58
2022/05/03 01:37:44;;;;;;;8.68;4.10;;;;;;;10.83;50.55;100215.33;1774767;81;21001;-57
2022/05/03 01:40:33;;;;;;;8.50;3.87;;;;;;;10.86;50.42;100212.18;1766499;80;21075;-58
2022/05/03 01:43:21;;;;;;;5.80;3.22;;;;;;;10.90;50.47;100212.09;1774481;81;21047;-57
2022/05/03 01:46:05;;;;;;;;;;;;;;;10.92;50.59;100209.99;1777090;79;21036;-58
2022/05/03 01:52:08;;;;;;;7.47;3.83;;;;;;;10.93;50.79;100206.72;1750958;80;21518;-57
2022/05/03 01:54:52;;;;;;;7.03;3.87;;;;;;;10.95;50.80;100201.36;1774566;81;21059;-58
2022/05/03 01:57:42;;;;;;;8.20;3.90;;;;;;;10.99;50.63;100208.64;1774655;81;21123;-57
2022/05/03 02:00:11;;;;;;;7.60;3.72;;;;;;;11.01;50.49;100206.02;1772129;81;21016;-59
2022/05/03 02:02:54;;;;;;;7.75;4.15;;;;;;;11.02;50.65;100200.01;1774486;81;21417;-58
2022/05/03 02:05:59;;;;;;;7.62;4.03;;;;;;;11.00;50.89;100197.47;1774356;81;21094;-58
2022/05/03 02:08:57;;;;;;;6.70;3.67;;;;;;;11.02;50.95;100195.38;1774619;80;21016;-58
2022/05/03 02:11:35;;;;;;;6.35;4.00;;;;;;;11.02;51.04;100192.63;1774313;80;21008;-57
2022/05/03 02:17:09;;;;;;;6.97;3.70;;;;;;;11.05;51.00;100198.23;1777092;80;21047;-57
2022/05/03 02:19:46;;;;;;;6.62;3.70;;;;;;;11.06;51.06;100196.69;1761459;80;21521;-58
2022/05/03 02:22:49;;;;;;;6.65;3.77;;;;;;;11.06;51.02;100198.05;1788181;80;21051;-57
2022/05/03 02:25:41;;;;;;;7.75;3.60;;;;;;;11.04;51.05;100196.02;1788219;80;21043;-63
2022/05/03 02:28:21;;;;;;;6.80;4.00;;;;;;;11.03;51.01;100197.06;1787857;80;20993;-57
2022/05/03 02:30:52;;;;;;;6.90;3.98;;;;;;;11.04;50.98;100194.64;1788385;80;20984;-57
2022/05/03 02:33:48;;;;;;;7.33;4.25;;;;;;;11.06;51.01;100188.98;1788501;80;21052;-58
2022/05/03 02:36:18;;;;;;;8.23;4.70;;;;;;;11.08;51.56;100185.51;1741375;82;21051;-59
2022/05/03 02:39:06;;;;;;;7.40;4.00;;;;;;;11.08;51.29;100187.73;1765222;80;21027;-57
2022/05/03 02:41:38;;;;;;;7.67;3.85;;;;;;;11.11;51.32;100185.94;1788458;80;21039;-57
2022/05/03 02:44:08;;;;;;;5.50;3.35;;;;;;;11.16;51.25;100185.84;1788176;80;21051;-57
2022/05/03 02:47:09;;;;;;;7.95;4.25;;;;;;;11.21;51.15;100197.05;1788071;80;21456;-59
2022/05/03 02:49:50;;;;;;;7.20;4.20;;;;;;;11.23;51.36;100197.16;1787797;80;21023;-56
2022/05/03 02:52:37;;;;;;;6.37;3.90;;;;;;;11.24;51.64;100204.86;1788261;80;21035;-57
2022/05/03 02:55:22;;;;;;;8.00;3.55;;;;;;;11.23;51.84;100204.01;1766465;80;21023;-58
2022/05/03 02:58:19;;;;;;;8.28;3.65;;;;;;;11.23;51.88;100210.02;1788263;80;21577;-58
2022/05/03 03:04:39;;;;;;;5.87;3.30;;;;;;;11.27;51.42;100208.03;1788323;80;21031;-57
2022/05/03 03:07:07;;;;;;;5.25;2.95;;;;;;;11.30;50.27;100204.88;1788149;80;21043;-57
2022/05/03 03:10:02;;;;;;;7.90;3.05;;;;;;;11.38;48.51;100203.83;1788034;80;21630;-57
2022/05/03 03:12:55;;;;;;;8.40;2.60;;;;;;;11.47;48.11;100194.88;1788309;80;21467;-58
2022/05/03 03:15:29;;;;;;;7.67;3.12;;;;;;;11.55;47.09;100192.78;1788425;80;21007;-57
2022/05/03 03:17:58;;;;;;;18.27;4.92;;;;;;;11.64;47.67;100194.80;1788028;80;21082;-58
2022/05/03 03:20:28;;;;;;;11.97;4.20;;;;;;;11.68;48.30;100192.80;1787884;80;21416;-58
2022/05/03 03:22:57;;;;;;;7.95;4.28;;;;;;;11.71;48.84;100200.64;1787810;80;20964;-56
2022/05/03 03:25:27;;;;;;;11.60;4.45;;;;;;;11.72;49.82;100202.86;1788252;80;21008;-57
2022/05/03 03:27:57;;;;;;;11.00;4.55;;;;;;;11.68;50.51;100202.40;1788285;80;20984;-57
2022/05/03 03:30:26;;;;;;;9.48;3.92;;;;;;;11.66;51.30;100194.06;1788206;80;21702;-58
2022/05/03 03:32:56;;;;;;;5.75;3.33;;;;;;;11.66;52.40;100197.65;1788162;80;21063;-57
2022/05/03 03:35:27;;;;;;;6.60;3.47;;;;;;;11.68;52.91;100168.09;1788165;80;21432;-58
2022/05/03 03:37:58;;;;;;;10.25;4.15;;;;;;;11.72;53.16;100208.34;1787953;80;20976;-59
2022/05/03 03:40:27;;;;;;;7.85;4.00;;;;;;;11.73;53.45;100208.66;1788167;80;21063;-63
2022/05/03 03:42:56;;;;;;;6.08;3.80;;;;;;;11.71;53.37;100213.52;1788401;80;21037;-58
2022/05/03 03:45:25;;;;;;;9.38;4.15;;;;;;;11.65;53.20;100216.54;1706843;84;21020;-58
2022/05/03 03:47:55;;;;;;;5.83;3.33;;;;;;;11.63;52.93;100214.53;1707232;84;21071;-58
2022/05/03 03:50:26;;;;;;;5.70;3.25;;;;;;;11.65;52.91;100206.94;1684398;84;21455;-58
2022/05/03 03:52:56;;;;;;;6.50;3.65;;;;;;;11.71;52.99;100199.80;1706963;84;21110;-58
2022/05/03 03:55:27;;;;;;;8.98;3.52;;;;;;;11.75;52.70;100192.83;1707257;84;21099;-57
2022/05/03 03:57:57;;;;;;;6.35;3.77;;;;;;;11.83;52.14;100193.18;1707187;84;21110;-59
2022/05/03 04:00:25;;;;;;;9.88;4.45;;;;;;;11.88;52.97;100192.86;1707065;84;21483;-58
2022/05/03 04:02:56;;;;;;;6.90;4.20;;;;;;;11.89;54.33;100180.83;1726270;80;21067;-57
2022/05/03 04:05:26;;;;;;;8.75;5.00;;;;;;;11.89;55.25;100186.84;1788382;79;20996;-57
2022/05/03 04:07:55;;;;;;;9.45;4.83;;;;;;;11.87;55.70;100180.72;1788194;80;21372;-59
2022/05/03 04:10:24;;;;;;;9.68;4.87;;;;;;;11.85;55.76;100188.33;1788093;80;21032;-57
2022/05/03 04:12:54;;;;;;;9.68;4.60;;;;;;;11.86;56.02;100196.34;1788211;80;21027;-58
2022/05/03 04:15:24;;;;;;;10.18;4.72;;;;;;;11.89;56.56;100198.67;1788218;80;21047;-59
2022/05/03 04:17:53;;;;;;;10.18;4.83;;;;;;;11.96;55.66;100198.67;1788048;80;21099;-58
2022/05/03 04:20:24;;;;;;;10.25;4.67;;;;;;;12.02;55.67;100195.92;1788476;80;21007;-58
2022/05/03 04:22:53;;;;;;;8.98;4.17;;;;;;;12.12;55.63;100198.23;1788028;80;21004;-58
2022/05/03 04:25:22;;;;;;;8.00;4.03;;;;;;;12.19;55.70;100188.61;1788393;80;21086;-61
2022/05/03 04:27:53;;;;;;;6.42;3.62;;;;;;;12.29;55.43;100187.12;1788396;80;20976;-58
2022/05/03 04:30:22;;;;;;;7.45;4.00;;;;;;;12.41;54.92;100189.23;1788360;80;20983;-57
2022/05/03 04:32:52;;;;;;;7.42;3.60;;;;;;;12.53;54.50;100198.52;1788032;80;21008;-59
2022/05/03 04:35:21;;;;;;;7.28;3.80;;;;;;;12.64;53.47;100191.81;1788119;80;21044;-59
2022/05/03 04:37:51;;;;;;;6.50;3.22;;;;;;;12.78;53.08;100187.64;1788126;80;21111;-58
2022/05/03 04:40:20;;;;;;;5.80;2.77;;;;;;;12.89;51.95;100193.30;1788342;80;20976;-58
2022/05/03 04:42:51;;;;;;;5.67;3.33;;;;;;;13.01;50.02;100190.22;1788079;80;21007;-61
2022/05/03 04:45:21;;;;;;;5.12;3.10;;;;;;;13.15;49.05;100186.02;1788491;80;21449;-58
2022/05/03 04:47:49;;;;;;;7.40;2.87;;;;;;;13.27;49.28;100192.02;1788278;80;21011;-58
2022/05/03 04:50:19;;;;;;;6.85;2.83;;;;;;;13.39;48.66;100185.27;1788046;80;21027;-57
2022/05/03 04:52:48;;;;;;;10.90;3.72;;;;;;;13.51;48.53;100186.25;1788363;79;21416;-59
2022/05/03 04:55:18;;;;;;;6.45;2.90;;;;;;;13.62;48.19;100180.03;1788123;80;21860;-58
2022/05/03 04:57:47;;;;;;;8.38;3.52;;;;;;;13.75;47.57;100178.28;1788197;80;21062;-57
2022/05/03 05:00:17;;;;;;;8.30;3.10;;;;;;;13.92;47.04;100176.66;1788275;80;21048;-59
2022/05/03 05:02:46;;;;;;;9.73;3.30;;;;;;;14.10;46.42;100172.56;1788674;80;20984;-58
2022/05/03 05:05:14;;;;;;;6.72;2.62;;;;;;;14.27;45.50;100168.69;1788202;80;21353;-58
2022/05/03 05:07:44;;;;;;;8.50;2.70;;;;;;;14.47;44.61;100176.28;1788166;80;21079;-58
2022/05/03 05:10:32;;;;;;;5.37;2.47;;;;;;;14.66;43.91;100171.61;1788369;80;21035;-58
2022/05/03 05:12:56;;;;;;;6.20;2.70;;;;;;;14.83;43.75;100168.53;1787904;80;21012;-58
2022/05/03 05:15:25;;;;;;;6.15;3.00;;;;;;;15.06;42.92;100173.90;1788184;80;21035;-58
2022/05/03 05:17:56;;;;;;;6.60;2.60;;;;;;;15.28;42.26;100176.45;1785306;80;21016;-59
2022/05/03 05:20:25;;;;;;;4.17;2.25;;;;;;;15.51;41.56;100172.39;1774422;81;20999;-57
2022/05/03 05:22:56;;;;;;;6.58;2.52;;;;;;;15.77;40.46;100167.05;1774408;81;21067;-57
2022/05/03 05:25:27;;;;;;;7.17;2.20;;;;;;;16.06;39.82;100169.43;1772603;81;21020;-57
2022/05/03 05:27:57;;;;;;;4.53;1.98;;;;;;;16.29;39.15;100166.41;1774787;81;21424;-57
2022/05/03 05:30:26;;;;;;;5.67;1.92;;;;;;;16.47;38.41;100170.42;1774412;81;21051;-58
2022/05/03 05:33:03;;;;;;;8.35;2.22;;;;;;;16.65;37.31;100171.69;1774429;81;21059;-58
2022/05/03 05:35:32;;;;;;;5.83;1.60;;;;;;;16.81;36.94;100170.09;1774494;81;21012;-57
2022/05/03 05:38:04;;;;;;;3.05;1.92;;;;;;;16.95;36.80;100172.07;1774308;81;20976;-58
2022/05/03 05:40:34;;;;;;;7.30;1.87;;;;;;;17.03;36.17;100175.84;1774576;81;21091;-58
2022/05/03 05:43:04;;;;;;;4.12;1.90;;;;;;;17.06;36.43;100171.19;1774617;81;20972;-57
2022/05/03 05:45:33;;;;;;;2.70;1.70;;;;;;;17.05;36.45;100174.50;1774461;81;21414;-59
2022/05/03 05:48:03;;;;;;;2.47;1.57;;;;;;;17.04;36.21;100174.75;1774549;81;21023;-58
2022/05/03 05:50:32;;;;;;;6.25;2.67;;;;;;;17.02;36.41;100179.69;1774437;80;21494;-59
2022/05/03 05:55:51;;;;;;;2.58;1.65;;;;;;;17.03;36.21;100171.69;1774529;81;21040;-58
2022/05/03 05:58:20;;;;;;;4.33;2.02;;;;;;;17.05;36.33;100169.52;1774328;79;20996;-58
2022/05/03 06:00:50;;;;;;;8.03;2.62;;;;;;;17.06;35.99;100164.27;1774469;81;21008;-58
2022/05/03 06:03:22;;;;;;;7.92;2.50;;;;;;;17.09;35.88;100166.00;1774525;81;21024;-59
2022/05/03 06:05:51;;;;;;;4.03;2.12;;;;;;;17.13;35.55;100164.97;1774373;81;21048;-57
2022/05/03 06:08:20;;;;;;;7.60;2.30;;;;;;;17.16;35.66;100163.09;1774928;81;20984;-59
2022/05/03 06:10:50;;;;;;;3.08;1.80;;;;;;;17.20;35.30;100164.82;1774451;81;21044;-58
2022/05/03 06:13:19;;;;;;;3.77;1.75;;;;;;;17.23;35.11;100160.17;1774553;81;21479;-59
2022/05/03 06:15:50;;;;;;;4.35;1.90;;;;;;;17.25;34.94;100161.61;1774349;81;21032;-58
2022/05/03 06:18:19;;;;;;;3.25;1.70;;;;;;;17.31;33.85;100160.61;1774457;80;21440;-58
2022/05/03 06:20:48;;;;;;;2.95;1.60;;;;;;;17.33;33.72;100162.59;1774555;81;21036;-59
2022/05/03 06:23:17;;;;;;;3.37;1.62;;;;;;;17.39;33.53;100157.45;1774584;80;21028;-57
2022/05/03 06:25:47;;;;;;;7.72;2.20;;;;;;;17.47;33.73;100163.67;1774532;81;21429;-57
2022/05/03 06:28:16;;;;;;;4.17;1.72;;;;;;;17.58;33.92;100168.34;1774353;81;21053;-59
2022/05/03 06:30:45;;;;;;;6.92;1.82;;;;;;;17.67;33.75;100166.33;1774346;81;21087;-59
2022/05/03 06:33:14;;;;;;;3.02;1.50;;;;;;;17.72;33.51;100165.58;1774398;81;21471;-60
2022/05/03 06:35:44;;;;;;;7.47;2.00;;;;;;;17.73;33.37;100163.94;1774284;81;21000;-58
2022/05/03 06:38:14;;;;;;;5.53;1.32;;;;;;;17.76;33.18;100165.38;1774343;80;21103;-58
2022/05/03 06:40:44;;;;;;;3.15;1.75;;;;;;;17.78;32.92;100165.13;1774342;81;21444;-58
2022/05/03 06:43:13;;;;;;;3.80;1.67;;;;;;;17.77;33.18;100170.38;1774564;81;21079;-58
2022/05/03 06:45:42;;;;;;;5.12;1.82;;;;;;;17.75;33.47;100166.47;1774431;81;21424;-58
2022/05/03 06:48:12;;;;;;;4.87;1.60;;;;;;;17.77;33.49;100167.05;1774612;81;21008;-59
2022/05/03 06:50:42;;;;;;;6.30;2.45;;;;;;;17.78;33.38;100167.34;1774271;81;20997;-58
2022/05/03 06:53:11;;;;;;;6.85;1.90;;;;;;;17.84;33.48;100159.41;1763927;81;21059;-58
2022/05/03 06:55:41;;;;;;;4.17;1.60;;;;;;;17.89;33.55;100163.66;1774621;81;21020;-59
2022/05/03 06:58:10;;;;;;;4.15;1.70;;;;;;;17.96;33.20;100162.10;1774743;81;21020;-58
2022/05/03 07:00:42;;;;;;;3.58;1.85;;;;;;;18.08;32.71;100156.47;1774312;81;21028;-58
2022/05/03 07:03:12;;;;;;;7.12;2.30;;;;;;;18.23;32.95;100162.29;1774316;81;21047;-59
2022/05/03 07:05:42;;;;;;;5.28;1.80;;;;;;;18.43;32.46;100159.81;1774362;81;20965;-58
2022/05/03 07:08:11;;;;;;;2.72;1.80;;;;;;;18.62;32.07;100161.78;1774463;79;21017;-59
2022/05/03 07:10:41;;;;;;;3.67;1.80;;;;;;;18.78;31.41;100158.66;1774303;79;21000;-58
2022/05/03 07:13:13;;;;;;;5.08;2.02;;;;;;;18.94;31.08;100157.23;1774498;81;21020;-58
2022/05/03 07:15:43;;;;;;;8.40;3.25;;;;;;;19.09;30.69;100156.58;1774412;81;21031;-58
2022/05/03 07:23:48;;;;;;;2.40;1.72;;;;;;;19.27;29.86;100161.80;1774300;81;20529;-58
2022/05/03 07:26:16;;;;;;;4.25;1.77;;;;;;;19.25;29.85;100163.16;1774282;81;21000;-57
2022/05/03 07:28:49;;;;;;;4.97;2.35;;;;;;;19.19;30.22;100170.59;1774421;79;21420;-58
2022/05/03 07:31:18;;;;;;;6.33;2.70;;;;;;;19.08;30.44;100167.95;1774359;81;21005;-58
2022/05/03 07:33:48;;;;;;;7.83;2.67;;;;;;;18.97;31.02;100173.93;1774388;81;21005;-58
2022/05/03 07:36:20;;;;;;;6.87;3.10;;;;;;;18.87;31.09;100171.03;1774524;81;21036;-59
2022/05/03 07:38:49;;;;;;;4.70;2.65;;;;;;;18.79;31.32;100165.89;1774333;81;21031;-61
2022/05/03 07:41:19;;;;;;;8.08;2.90;;;;;;;18.80;31.51;100159.24;1774364;81;21075;-59
2022/05/03 07:43:48;;;;;;;4.33;2.27;;;;;;;18.81;31.58;100160.38;1774382;81;21463;-57
2022/05/03 07:46:17;;;;;;;3.25;2.35;;;;;;;18.81;31.54;100160.38;1774287;81;21008;-58
2022/05/03 07:48:46;;;;;;;4.67;1.80;;;;;;;18.82;31.48;100163.44;1778098;79;21048;-59
2022/05/03 07:51:17;;;;;;;2.95;1.80;;;;;;;18.85;30.99;100168.48;1771822;79;21059;-61
2022/05/03 07:53:47;;;;;;;4.37;1.80;;;;;;;18.89;30.73;100170.22;1774544;79;20976;-59
2022/05/03 07:56:15;;;;;;;3.17;1.90;;;;;;;18.90;30.78;100164.95;1708122;84;20999;-59
2022/05/03 07:58:44;;;;;;;3.75;1.80;;;;;;;18.90;31.05;100161.63;1774427;81;20996;-59
2022/05/03 08:01:13;;;;;;;5.55;2.00;;;;;;;18.89;31.37;100163.28;1774271;81;21043;-64
2022/05/03 08:03:42;;;;;;;5.67;2.05;;;;;;;18.92;31.79;100158.59;1774282;79;21016;-58
2022/05/03 08:06:12;;;;;;;6.70;2.17;;;;;;;18.94;32.02;100156.41;1774434;81;21008;-58
2022/05/03 08:08:42;;;;;;;3.55;2.10;;;;;;;18.97;32.02;100156.72;1774240;80;20999;-57
2022/05/03 08:11:11;;;;;;;9.20;2.10;;;;;;;19.04;32.29;100157.91;1737472;82;21017;-60
2022/05/03 08:13:41;;;;;;;3.30;1.90;;;;;;;19.13;32.27;100152.19;1774341;81;21039;-59
2022/05/03 08:16:20;;;;;;;7.35;2.65;;;;;;;19.25;32.00;100147.33;1774253;81;20981;-59
2022/05/03 08:18:50;;;;;;;5.28;2.25;;;;;;;19.42;32.06;100143.61;1737359;81;21204;-60
2022/05/03 08:21:20;;;;;;;6.05;2.20;;;;;;;19.75;31.81;100142.59;1774433;81;21543;-58
2022/05/03 08:23:50;;;;;;;3.87;1.82;;;;;;;20.06;31.19;100137.57;1798343;79;21043;-59
2022/05/03 08:26:19;;;;;;;3.67;2.05;;;;;;;20.24;30.90;100140.52;1806051;79;21051;-59
2022/05/03 08:28:50;;;;;;;4.97;2.47;;;;;;;20.43;30.48;100136.77;1805942;79;21071;-57
2022/05/03 08:31:19;;;;;;;5.80;2.42;;;;;;;20.57;29.91;100136.57;1806058;79;21094;-59
2022/05/03 08:33:49;;;;;;;6.55;2.25;;;;;;;20.71;29.82;100136.36;1806029;79;21004;-58
2022/05/03 08:36:19;;;;;;;4.35;1.92;;;;;;;20.89;29.14;100122.55;1806018;79;21518;-61
2022/05/03 08:44:22;;;;;;;;;;;;;;;21.61;28.21;100112.47;1808660;79;21008;-60
2022/05/03 08:46:53;;;;;;;3.92;1.85;;;;;;;21.84;27.78;100100.20;1806368;79;20149;-60
2022/05/03 08:49:30;;;;;;;5.00;1.92;;;;;;;22.14;27.01;100110.56;1811059;79;21079;-61
2022/05/03 08:52:00;;;;;;;4.28;2.58;;;;;;;22.45;26.41;100101.56;1822829;79;21050;-59
2022/05/03 08:54:32;;;;;;;5.10;1.95;;;;;;;22.62;26.51;100099.00;1812845;79;21016;-62
2022/05/03 08:57:04;;;;;;;2.52;1.80;;;;;;;22.81;26.39;100097.30;1773494;80;20990;-60
2022/05/03 08:59:35;;;;;;;5.12;3.08;;;;;;;22.90;26.03;100100.34;1729610;81;21057;-60
2022/05/03 09:02:05;;;;;;;2.35;1.90;;;;;;;22.86;25.86;100090.30;1774212;81;21097;-59
2022/05/03 09:04:35;;;;;;;4.53;2.22;;;;;;;22.74;26.06;100091.13;1774329;81;21055;-59
2022/05/03 09:07:23;;;;;;;3.15;2.10;;;;;;;22.64;26.08;100087.81;1774555;81;21027;-59
2022/05/03 09:09:53;;;;;;;5.62;1.82;;;;;;;22.55;26.02;100079.75;1764142;81;21039;-60
2022/05/03 09:12:28;;;;;;;3.15;1.80;;;;;;;22.39;25.92;100076.17;1774326;81;21063;-58
2022/05/03 09:15:00;;;;;;;2.85;1.60;;;;;;;22.38;26.19;100069.48;1774627;80;21016;-61
2022/05/03 09:17:38;;;;;;;5.40;1.80;;;;;;;22.29;25.81;100065.03;1774430;81;21028;-58
2022/05/03 09:26:23;;;;;;;5.03;1.82;;;;;;;21.81;26.13;100067.29;1788379;80;20980;-61
2022/05/03 09:28:55;;;;;;;3.20;1.70;;;;;;;21.74;25.79;100059.77;1788204;80;21007;-59
2022/05/03 09:31:34;;;;;;;5.80;2.22;;;;;;;21.72;25.49;100050.01;1787893;80;21007;-58
2022/05/03 09:34:24;;;;;;;2.62;1.82;;;;;;;21.67;25.83;100048.06;1771200;80;21016;-60
2022/05/03 09:37:00;;;;;;;5.42;1.60;;;;;;;21.67;25.81;100042.48;1744939;80;21285;-62
2022/05/03 09:39:34;;;;;;;3.67;1.75;;;;;;;21.70;25.38;100042.48;1760110;80;21025;-58
2022/05/03 09:42:13;;;;;;;4.20;1.77;;;;;;;21.59;25.62;100031.89;1760061;80;21025;-59
2022/05/03 09:44:54;;;;;;;4.20;1.80;;;;;;;21.48;25.82;100024.09;1787790;80;21067;-60
2022/05/03 09:47:30;;;;;;;2.50;1.72;;;;;;;21.41;26.15;100023.50;1788253;80;21001;-60
2022/05/03 09:49:59;;;;;;;4.12;2.40;;;;;;;21.40;26.29;100016.81;1787874;80;21021;-62
2022/05/03 09:52:32;;;;;;;5.58;1.75;;;;;;;21.35;26.41;100012.63;1788455;80;21012;-60
2022/05/03 09:55:08;;;;;;;7.55;1.92;;;;;;;21.30;26.61;100013.46;1787834;80;21012;-61
2022/05/03 09:57:39;;;;;;;3.33;2.17;;;;;;;21.28;26.92;100013.45;1765647;80;21053;-60
2022/05/03 10:00:12;;;;;;;10.23;2.65;;;;;;;21.28;26.76;100005.94;1788379;80;20981;-59
2022/05/03 10:02:44;;;;;;;4.67;2.30;;;;;;;21.33;26.98;100007.89;1761196;80;21128;-59
2022/05/03 10:05:16;;;;;;;8.35;2.27;;;;;;;21.38;27.13;100007.89;1760553;80;21531;-59
2022/05/03 10:07:48;;;;;;;4.67;2.45;;;;;;;21.37;27.07;99995.91;1788126;80;20985;-61
2022/05/03 10:10:18;;;;;;;3.00;1.80;;;;;;;21.32;27.13;99994.52;1759904;80;21025;-59
2022/05/03 10:12:49;;;;;;;5.03;1.90;;;;;;;21.38;27.37;99992.56;1759884;80;21099;-62
2022/05/03 10:20:46;;;;;;;7.40;2.37;;;;;;;21.32;27.05;99981.97;1740877;80;21136;-60
2022/05/03 10:23:23;;;;;;;4.17;2.22;;;;;;;21.27;27.14;99975.00;1730924;80;21918;-62
2022/05/03 10:25:58;;;;;;;5.62;2.30;;;;;;;21.29;26.47;99974.16;1782928;80;21025;-60
2022/05/03 10:28:55;;;;;;;5.90;2.55;;;;;;;21.26;26.14;99973.89;1754863;80;21025;-60
2022/05/03 10:31:26;;;;;;;4.42;1.80;;;;;;;21.25;26.29;99962.46;1748703;80;21076;-61
2022/05/03 10:33:57;;;;;;;7.22;2.15;;;;;;;21.25;26.22;99966.64;1782822;80;22132;-61
2022/05/03 10:36:40;;;;;;;4.00;1.82;;;;;;;21.16;26.75;99963.55;1786981;80;21078;-60
2022/05/03 10:39:21;;;;;;;6.45;2.65;;;;;;;21.07;26.98;99952.12;1788126;80;21470;-60
2022/05/03 10:42:02;;;;;;;7.35;4.03;;;;;;;21.06;26.67;99949.61;1788285;79;21495;-59
2022/05/03 10:44:57;;;;;;;5.05;2.67;;;;;;;21.01;26.91;99951.00;1788272;80;21442;-60
2022/05/03 10:47:49;;;;;;;5.62;2.40;;;;;;;20.95;27.14;99950.72;1788364;80;21062;-59
2022/05/03 10:50:21;;;;;;;3.17;1.67;;;;;;;20.93;27.29;99948.21;1788039;80;21055;-61
2022/05/03 10:53:05;;;;;;;4.15;2.45;;;;;;;20.91;27.29;99943.47;1788098;79;21035;-60
2022/05/03 10:58:30;;;;;;;6.87;2.10;;;;;;;20.94;27.14;99943.48;1730282;83;21478;-59
2022/05/03 11:01:23;;;;;;;6.17;2.15;;;;;;;20.97;26.78;99931.22;1733702;83;21117;-61
2022/05/03 11:04:02;;;;;;;3.70;2.47;;;;;;;20.98;27.15;99932.06;1733585;83;21022;-59
2022/05/03 11:06:41;;;;;;;3.08;2.25;;;;;;;21.10;26.69;99932.63;1733701;83;20986;-60
2022/05/03 11:09:15;;;;;;;2.87;2.10;;;;;;;21.23;26.65;99922.89;1733595;82;21049;-60
2022/05/03 11:11:53;;;;;;;4.40;2.20;;;;;;;21.35;26.47;99917.31;1733789;83;21034;-60
2022/05/03 11:14:26;;;;;;;;;;;;;;;21.45;26.52;99917.85;1812122;78;21507;-62
2022/05/03 11:17:08;;;;;;;6.95;2.50;;;;;;;21.60;26.46;99920.64;1831542;78;20528;-60
2022/05/03 11:19:49;;;;;;;4.67;2.58;;;;;;;21.67;26.41;99913.38;1830369;78;21034;-61
2022/05/03 11:22:31;;;;;;;3.90;2.50;;;;;;;21.67;26.20;99907.23;1822231;79;21074;-61
2022/05/03 11:25:15;;;;;;;6.62;2.58;;;;;;;21.59;26.27;99906.42;1789567;79;21046;-61
2022/05/03 11:27:45;;;;;;;6.53;2.72;;;;;;;21.52;26.34;99900.31;1822240;79;21058;-60
2022/05/03 11:30:16;;;;;;;3.10;2.00;;;;;;;21.43;26.52;99904.75;1822293;79;21526;-59
2022/05/03 11:32:46;;;;;;;2.98;2.30;;;;;;;21.40;26.34;99892.22;1822401;79;21011;-56
2022/05/03 11:35:19;;;;;;;3.45;2.02;;;;;;;21.39;26.33;99898.07;1810582;79;21034;-59
2022/05/03 11:37:59;;;;;;;6.30;2.92;;;;;;;21.44;26.38;99894.72;1782488;80;21053;-61
2022/05/03 11:40:30;;;;;;;6.70;2.58;;;;;;;21.51;26.52;99891.67;1782730;80;21002;-59
2022/05/03 11:43:01;;;;;;;6.17;3.10;;;;;;;21.56;26.34;99887.47;1753101;80;21482;-59
2022/05/03 11:45:31;;;;;;;3.90;2.17;;;;;;;21.58;26.22;99879.66;1752915;80;21564;-59
2022/05/03 11:48:01;;;;;;;4.03;2.33;;;;;;;21.62;25.76;99869.61;1782716;80;21531;-59
2022/05/03 11:56:11;;;;;;;5.80;2.20;;;;;;;21.63;25.63;99876.02;1782549;80;20983;-59
2022/05/03 11:58:40;;;;;;;4.35;2.10;;;;;;;21.61;25.67;99874.08;1767241;79;21008;-60
2022/05/03 12:01:15;;;;;;;4.22;2.08;;;;;;;21.57;25.71;99875.20;1790323;79;21067;-61
2022/05/03 12:03:53;;;;;;;3.90;2.52;;;;;;;21.53;25.51;99875.49;1812386;79;21012;-60
2022/05/03 12:06:23;;;;;;;7.60;2.30;;;;;;;21.49;25.66;99871.05;1806251;79;21003;-62
2022/05/03 12:08:54;;;;;;;2.67;2.00;;;;;;;21.51;25.52;99866.58;1782777;80;21082;-61
2022/05/03 12:11:25;;;;;;;4.05;2.10;;;;;;;21.53;25.69;99864.91;1753329;80;21031;-61
2022/05/03 12:13:55;;;;;;;4.60;2.50;;;;;;;21.50;25.98;99862.13;1782535;80;21055;-60
2022/05/03 12:16:25;;;;;;;4.05;2.02;;;;;;;21.52;25.90;99855.70;1813069;79;21468;-60
2022/05/03 12:18:57;;;;;;;3.08;1.95;;;;;;;21.55;25.58;99855.70;1788705;79;21106;-59
2022/05/03 12:21:29;;;;;;;5.83;2.10;;;;;;;21.57;25.65;99858.48;1817461;79;21023;-60
2022/05/03 12:24:04;;;;;;;4.62;1.80;;;;;;;21.55;24.96;99857.09;1817617;79;21424;-60
2022/05/03 12:26:40;;;;;;;3.37;2.37;;;;;;;21.49;25.09;99857.11;1817607;79;21035;-61
2022/05/03 12:29:11;;;;;;;3.33;1.98;;;;;;;21.45;25.14;99852.34;1817543;79;21023;-60
2022/05/03 12:31:43;;;;;;;3.85;1.80;;;;;;;21.41;25.25;99849.85;1760816;79;21071;-61
2022/05/03 12:34:23;;;;;;;4.33;2.10;;;;;;;21.37;25.35;99842.61;1795793;80;21090;-58
2022/05/03 12:37:02;;;;;;;7.12;2.40;;;;;;;21.33;25.74;99849.03;1783141;80;21921;-60
2022/05/03 12:39:36;;;;;;;9.03;2.22;;;;;;;21.28;27.79;99867.16;1782732;80;21015;-59
2022/05/03 12:42:13;;;;;;;3.80;2.25;;;;;;;21.16;29.20;99871.59;1782686;80;21024;-59
2022/05/03 12:44:52;;;;;;;4.03;2.00;;;;;;;20.99;30.32;99866.88;1782806;80;20984;-59
2022/05/03 12:47:22;;;;;;;4.12;2.20;;;;;;;20.73;31.06;99858.50;1782766;80;21474;-60